sensor_id;sensor_type;location;lat;lon;timestamp;P1;durP1;ratioP1;P2;durP2;ratioP2
43554;SDS011;35085;40.398;-3.702;2022-12-10T00:02:40;4.93;;;2.65;;
43554;SDS011;35085;40.398;-3.702;2022-12-10T00:13:11;4.35;;;2.50;;
43554;SDS011;35085;40.398;-3.702;2022-12-10T00:23:26;4.03;;;2.50;;
43554;SDS011;35085;40.398;-3.702;2022-12-10T00:33:57;5.75;;;2.97;;
43554;SDS011;35085;40.398;-3.702;2022-12-10T00:44:07;5.25;;;3.13;;
43554;SDS011;35085;40.398;-3.702;2022-12-10T00:54:38;7.00;;;4.10;;
43554;SDS011;35085;40.398;-3.702;2022-12-10T01:04:53;7.00;;;3.57;;
43554;SDS011;35085;40.398;-3.702;2022-12-10T01:15:28;5.82;;;3.58;;
43554;SDS011;35085;40.398;-3.702;2022-12-10T01:25:43;5.80;;;3.40;;
43554;SDS011;35085;40.398;-3.702;2022-12-10T01:36:17;8.15;;;3.80;;
43554;SDS011;35085;40.398;-3.702;2022-12-10T01:46:32;5.68;;;3.35;;
43554;SDS011;35085;40.398;-3.702;2022-12-10T01:57:09;5.23;;;3.10;;
43554;SDS011;35085;40.398;-3.702;2022-12-10T02:07:26;11.48;;;5.57;;
43554;SDS011;35085;40.398;-3.702;2022-12-10T02:18:12;8.85;;;4.72;;
43554;SDS011;35085;40.398;-3.702;2022-12-10T02:39:38;4.97;;;3.17;;
43554;SDS011;35085;40.398;-3.702;2022-12-10T02:50:07;6.22;;;3.90;;
43554;SDS011;35085;40.398;-3.702;2022-12-10T03:01:01;6.80;;;4.18;;
43554;SDS011;35085;40.398;-3.702;2022-12-10T03:11:22;9.50;;;5.43;;
43554;SDS011;35085;40.398;-3.702;2022-12-10T03:22:01;15.15;;;8.25;;
43554;SDS011;35085;40.398;-3.702;2022-12-10T03:32:19;25.10;;;12.02;;
43554;SDS011;35085;40.398;-3.702;2022-12-10T03:43:11;11.43;;;6.50;;
43554;SDS011;35085;40.398;-3.702;2022-12-10T03:53:29;9.57;;;5.47;;
43554;SDS011;35085;40.398;-3.702;2022-12-10T04:04:00;6.07;;;3.88;;
43554;SDS011;35085;40.398;-3.702;2022-12-10T04:14:11;2.00;;;1.17;;
43554;SDS011;35085;40.398;-3.702;2022-12-10T04:25:02;2.08;;;1.10;;
43554;SDS011;35085;40.398;-3.702;2022-12-10T04:35:31;2.05;;;1.00;;
43554;SDS011;35085;40.398;-3.702;2022-12-10T04:46:03;2.65;;;1.50;;
43554;SDS011;35085;40.398;-3.702;2022-12-10T04:56:27;9.82;;;4.20;;
43554;SDS011;35085;40.398;-3.702;2022-12-10T05:06:57;9.05;;;4.78;;
43554;SDS011;35085;40.398;-3.702;2022-12-10T05:17:07;12.07;;;6.50;;
43554;SDS011;35085;40.398;-3.702;2022-12-10T05:27:36;11.73;;;5.93;;
43554;SDS011;35085;40.398;-3.702;2022-12-10T05:38:05;14.00;;;6.40;;
43554;SDS011;35085;40.398;-3.702;2022-12-10T05:48:53;12.88;;;5.75;;
43554;SDS011;35085;40.398;-3.702;2022-12-10T05:59:08;12.80;;;5.70;;
43554;SDS011;35085;40.398;-3.702;2022-12-10T06:09:40;12.48;;;5.95;;
43554;SDS011;35085;40.398;-3.702;2022-12-10T06:19:51;13.43;;;5.50;;
43554;SDS011;35085;40.398;-3.702;2022-12-10T06:30:24;14.60;;;6.30;;
43554;SDS011;35085;40.398;-3.702;2022-12-10T06:40:38;17.08;;;6.63;;
43554;SDS011;35085;40.398;-3.702;2022-12-10T06:51:08;14.48;;;6.07;;
43554;SDS011;35085;40.398;-3.702;2022-12-10T07:11:48;12.60;;;5.20;;
43554;SDS011;35085;40.398;-3.702;2022-12-10T07:21:58;13.25;;;5.30;;
43554;SDS011;35085;40.398;-3.702;2022-12-10T07:32:27;16.33;;;6.57;;
43554;SDS011;35085;40.398;-3.702;2022-12-10T07:42:36;11.98;;;4.97;;
43554;SDS011;35085;40.398;-3.702;2022-12-10T07:53:14;17.77;;;6.50;;
43554;SDS011;35085;40.398;-3.702;2022-12-10T08:03:44;20.42;;;7.43;;
43554;SDS011;35085;40.398;-3.702;2022-12-10T08:13:52;18.98;;;7.13;;
43554;SDS011;35085;40.398;-3.702;2022-12-10T08:24:22;17.90;;;7.40;;
43554;SDS011;35085;40.398;-3.702;2022-12-10T08:34:30;17.15;;;7.03;;
43554;SDS011;35085;40.398;-3.702;2022-12-10T08:44:59;18.65;;;7.43;;
43554;SDS011;35085;40.398;-3.702;2022-12-10T08:55:09;18.52;;;7.10;;
43554;SDS011;35085;40.398;-3.702;2022-12-10T09:05:38;16.10;;;6.90;;
43554;SDS011;35085;40.398;-3.702;2022-12-10T09:15:50;13.30;;;7.03;;
43554;SDS011;35085;40.398;-3.702;2022-12-10T09:26:22;12.52;;;6.30;;
43554;SDS011;35085;40.398;-3.702;2022-12-10T09:36:30;11.32;;;5.07;;
43554;SDS011;35085;40.398;-3.702;2022-12-10T09:47:00;11.38;;;4.05;;
43554;SDS011;35085;40.398;-3.702;2022-12-10T09:57:15;7.32;;;4.07;;
43554;SDS011;35085;40.398;-3.702;2022-12-10T10:07:52;7.57;;;4.10;;
43554;SDS011;35085;40.398;-3.702;2022-12-10T10:28:50;6.20;;;3.42;;
43554;SDS011;35085;40.398;-3.702;2022-12-10T10:39:09;3.58;;;2.25;;
43554;SDS011;35085;40.398;-3.702;2022-12-10T10:49:43;5.55;;;3.30;;
43554;SDS011;35085;40.398;-3.702;2022-12-10T10:59:54;6.05;;;2.53;;
43554;SDS011;35085;40.398;-3.702;2022-12-10T11:10:26;6.75;;;4.45;;
43554;SDS011;35085;40.398;-3.702;2022-12-10T11:20:35;2.35;;;1.00;;
43554;SDS011;35085;40.398;-3.702;2022-12-10T11:51:57;1.33;;;0.50;;
43554;SDS011;35085;40.398;-3.702;2022-12-10T12:03:10;2.80;;;0.90;;
43554;SDS011;35085;40.398;-3.702;2022-12-10T12:23:41;2.33;;;1.20;;
43554;SDS011;35085;40.398;-3.702;2022-12-10T12:34:21;1.83;;;0.85;;
43554;SDS011;35085;40.398;-3.702;2022-12-10T13:05:49;3.10;;;1.13;;
43554;SDS011;35085;40.398;-3.702;2022-12-10T13:27:14;2.40;;;0.98;;
43554;SDS011;35085;40.398;-3.702;2022-12-10T13:48:40;2.28;;;1.10;;
43554;SDS011;35085;40.398;-3.702;2022-12-10T14:19:35;1.27;;;0.70;;
43554;SDS011;35085;40.398;-3.702;2022-12-10T14:29:45;2.28;;;1.05;;
43554;SDS011;35085;40.398;-3.702;2022-12-10T14:40:24;2.20;;;0.80;;
43554;SDS011;35085;40.398;-3.702;2022-12-10T14:50:35;2.00;;;1.05;;
43554;SDS011;35085;40.398;-3.702;2022-12-10T15:01:11;2.25;;;1.00;;
43554;SDS011;35085;40.398;-3.702;2022-12-10T15:11:23;4.38;;;1.77;;
43554;SDS011;35085;40.398;-3.702;2022-12-10T15:21:58;3.17;;;1.15;;
43554;SDS011;35085;40.398;-3.702;2022-12-10T15:32:11;2.80;;;1.40;;
43554;SDS011;35085;40.398;-3.702;2022-12-10T15:42:42;4.57;;;2.13;;
43554;SDS011;35085;40.398;-3.702;2022-12-10T15:52:52;5.97;;;3.08;;
43554;SDS011;35085;40.398;-3.702;2022-12-10T16:03:27;4.32;;;1.48;;
43554;SDS011;35085;40.398;-3.702;2022-12-10T16:13:36;3.13;;;1.40;;
43554;SDS011;35085;40.398;-3.702;2022-12-10T16:24:05;3.05;;;1.70;;
43554;SDS011;35085;40.398;-3.702;2022-12-10T16:34:14;4.68;;;2.03;;
43554;SDS011;35085;40.398;-3.702;2022-12-10T16:44:45;3.03;;;1.40;;
43554;SDS011;35085;40.398;-3.702;2022-12-10T16:54:54;4.70;;;1.77;;
43554;SDS011;35085;40.398;-3.702;2022-12-10T17:05:29;2.95;;;1.40;;
43554;SDS011;35085;40.398;-3.702;2022-12-10T17:15:40;4.72;;;2.47;;
43554;SDS011;35085;40.398;-3.702;2022-12-10T17:26:29;4.75;;;2.03;;
43554;SDS011;35085;40.398;-3.702;2022-12-10T17:36:39;2.10;;;1.45;;
43554;SDS011;35085;40.398;-3.702;2022-12-10T17:47:13;6.65;;;2.97;;
43554;SDS011;35085;40.398;-3.702;2022-12-10T17:57:23;3.55;;;1.95;;
43554;SDS011;35085;40.398;-3.702;2022-12-10T18:07:52;4.88;;;2.58;;
43554;SDS011;35085;40.398;-3.702;2022-12-10T18:18:01;4.57;;;2.22;;
43554;SDS011;35085;40.398;-3.702;2022-12-10T18:38:45;5.28;;;2.72;;
43554;SDS011;35085;40.398;-3.702;2022-12-10T18:49:15;5.13;;;2.72;;
43554;SDS011;35085;40.398;-3.702;2022-12-10T18:59:25;5.05;;;2.53;;
43554;SDS011;35085;40.398;-3.702;2022-12-10T19:09:54;6.43;;;3.28;;
43554;SDS011;35085;40.398;-3.702;2022-12-10T19:20:02;4.15;;;2.67;;
43554;SDS011;35085;40.398;-3.702;2022-12-10T19:30:33;5.63;;;3.22;;
43554;SDS011;35085;40.398;-3.702;2022-12-10T19:40:41;7.63;;;3.40;;
43554;SDS011;35085;40.398;-3.702;2022-12-10T19:51:11;9.13;;;4.43;;
43554;SDS011;35085;40.398;-3.702;2022-12-10T20:01:20;10.90;;;3.88;;
43554;SDS011;35085;40.398;-3.702;2022-12-10T20:11:51;8.48;;;4.68;;
43554;SDS011;35085;40.398;-3.702;2022-12-10T20:21:59;4.75;;;2.63;;
43554;SDS011;35085;40.398;-3.702;2022-12-10T20:32:28;5.65;;;3.30;;
43554;SDS011;35085;40.398;-3.702;2022-12-10T20:42:37;8.75;;;2.70;;
43554;SDS011;35085;40.398;-3.702;2022-12-10T20:53:08;3.90;;;2.72;;
43554;SDS011;35085;40.398;-3.702;2022-12-10T21:03:16;5.65;;;2.67;;
43554;SDS011;35085;40.398;-3.702;2022-12-10T21:13:48;7.20;;;2.70;;
43554;SDS011;35085;40.398;-3.702;2022-12-10T21:23:57;10.27;;;3.83;;
43554;SDS011;35085;40.398;-3.702;2022-12-10T21:34:26;5.07;;;1.80;;
43554;SDS011;35085;40.398;-3.702;2022-12-10T21:44:36;5.57;;;2.65;;
43554;SDS011;35085;40.398;-3.702;2022-12-10T21:55:05;6.55;;;2.08;;
43554;SDS011;35085;40.398;-3.702;2022-12-10T22:05:15;5.95;;;2.40;;
43554;SDS011;35085;40.398;-3.702;2022-12-10T22:15:45;6.53;;;2.47;;
43554;SDS011;35085;40.398;-3.702;2022-12-10T22:25:56;5.97;;;2.03;;
43554;SDS011;35085;40.398;-3.702;2022-12-10T22:36:26;6.45;;;2.00;;
43554;SDS011;35085;40.398;-3.702;2022-12-10T22:46:36;7.07;;;1.50;;
43554;SDS011;35085;40.398;-3.702;2022-12-10T22:57:05;1.98;;;1.30;;
43554;SDS011;35085;40.398;-3.702;2022-12-10T23:07:15;5.75;;;1.80;;
43554;SDS011;35085;40.398;-3.702;2022-12-10T23:17:47;4.95;;;1.50;;
43554;SDS011;35085;40.398;-3.702;2022-12-10T23:27:56;4.85;;;1.60;;
43554;SDS011;35085;40.398;-3.702;2022-12-10T23:38:26;5.72;;;1.70;;
43554;SDS011;35085;40.398;-3.702;2022-12-10T23:48:35;4.93;;;1.50;;
43554;SDS011;35085;40.398;-3.702;2022-12-10T23:59:06;7.65;;;1.70;;
